メインページ
METAR-TAF:

METAR-TAF

空港 :

ワガドゥグー空港

ワガドゥグー, ブルキナファソ

緯度: 12-21N, 経度: 001-31W, 海抜: 316m

現時点の気象観測

当レポートは16分前の21:00(UTC)に作成
無風
気温 28°C
湿度 79%
気圧 1014 hPa
視程10km以上
高度2000ftの雲はほとんどない
高度3000ftの雲はほとんどない, 積乱雲.
激しい雷雨

METAR: DFFD 192100Z 00000KT 9999 TS FEW020 FEW030CB 28/24 Q1014 TEMPO 4000 TSRA

時間: 21:16 (21:16 UTC)

予報

当レポートは4時間16分前の17:00(UTC)に作成
予報は19日の 18時(UTC)から 20日の 24時(UTC)まで有効
西/南西の風 8kt
視程10km以上
高度2000ftの雲は散在している
19日の 18時(UTC)から 20日の 02時(UTC)まで一時的に
視程: 4000m
高度1600ftの千切れ雲あり
高度3300ftの雲はほとんどない, 積乱雲.
20日の 04時(UTC)から 20日の 09時(UTC)まで一時的に
視程: 4000m
高度1000ftの千切れ雲あり
20日の 15時(UTC)から 20日の 22時(UTC)まで一時的に
変向風 25kt
視程: 2500m
高度2000ftの千切れ雲あり
高度3300ftの雲は散在している, 積乱雲.
スコール, 激しい雷雨, 雨

TAF: DFFD 191700Z 1918/2024 24008KT 9999 SCT020 TEMPO 1918/2002 4000 TSSHRA BKN016 FEW033CB TEMPO 2004/2009 4000 BR BKN010 TEMPO 2015/2022 VRB25KT 2500 SQ TSRA BKN020 SCT033CB

4,000以上の空港の気象観測と天気予報(METAR報とTAF報)

利用可能な観測所は地図上に黄色い丸と赤い丸で示す。

丸の上にカーソルを重ねると観測所名を参照できる。

次にクリックすると気象観測と天気予報を参照できる。

マップの切り替え:黒色「×」印の緑ボタンをクリックして拡大、「-」印の緑ボタンをクリックして縮小、緑色の三角印をクリックして隣りの地図に切り替え


METAR-TAF: